Suffolk, VA (23434)

2:33 AM EDT on September 01, 2015 (GMT -0400)
APRSWXNET | | Change Station
CLOSE
Current Station
Personal Weather Station
Location: Suffolk, VA
Elevation: 11 ft
Nearby Weather Stations

Elev 11 ft 36.73 °N, 76.58 °W | Updated 26 minutes ago

Mostly Cloudy
Mostly Cloudy
74 °F
Feels Like 72 °F
N
0
Wind Variable Wind from South
Gusts 3.0 mph

Today
High -- | Low -- °F
--% Chance of Precip.
Yesterday
High -- | Low -- °F
Precip. -- in
6:37 AM 7:35 PM
Waning Gibbous, 91% visible
Pressure 30.06 in
Visibility 10.0 miles
Clouds Overcast 900 ft
Heat Index 72 °F
Dew Point 72 °F
Humidity 93%
Rainfall in
Snow Depth Not available.
UV 0 out of 12
Pollen 8.10 out of 12
Air Quality Not available.
Flu Activity Not available.
METAR KSFQ 010615Z AUTO 00000KT 10SM OVC009 22/21 A3006 RMK AO2 T02160213
Pressure 30.06 in
Visibility 10.0 miles
Clouds Overcast 900 ft
Heat Index 72 °F
Dew Point 72 °F
Humidity 93%
Rainfall in
Snow Depth Not available.
UV 0 out of 12
Pollen 8.10 out of 12
Air Quality Not available.
Flu Activity Not available.
METAR KSFQ 010615Z AUTO 00000KT 10SM OVC009 22/21 A3006 RMK AO2 T02160213

10-Day Weather Forecast

×

Almanac

Astronomy

Sep. 01, 2015 Rise Set
Actual Time
Civil Twilight
Nautical Twilight
Astronomical Twilight
Moon
Length of Visible Light
Length of Day
Tomorrow will be .
, % of the Moon is Illuminated

Today's Extremes

State Highs State Lows

Community

WunderPhotos

Upload Photos

1,851,488 photos uploaded!

WunderBlogs® & News

Nearby

Air Quality

  Air Quality AQ Index Pollutant
Not available.

Snow Depth

Station Depth Elevation

Earthquake Activity

City Distance Mag. Time & Date
Minimum magnitude displayed is 2.5.

Coastal Water Temperatures

Place Temperature

Stations

Nearby Weather Stations

Station Location Temp. Windchill Dew Point Humidity Wind Precip. Elev Updated Type